createdAt,value
2022-08-14T00:00:02.970Z,0
2022-08-14T00:01:02.981Z,0
2022-08-14T00:02:03.222Z,0
2022-08-14T00:03:02.993Z,0
2022-08-14T00:04:02.985Z,0
2022-08-14T00:05:02.993Z,0
2022-08-14T00:06:02.986Z,0
2022-08-14T00:07:02.981Z,0
2022-08-14T00:08:02.982Z,0
2022-08-14T00:09:02.988Z,0
2022-08-14T00:10:50.475Z,0
2022-08-14T00:11:02.982Z,0
2022-08-14T00:12:02.986Z,0
2022-08-14T00:13:05.027Z,0
2022-08-14T00:14:02.997Z,0
2022-08-14T00:15:03.129Z,0
2022-08-14T00:16:02.977Z,0
2022-08-14T00:17:02.977Z,0
2022-08-14T00:18:03.004Z,0
2022-08-14T00:19:06.841Z,0
2022-08-14T00:20:02.977Z,0
2022-08-14T00:21:03.120Z,0
2022-08-14T00:22:02.977Z,0
2022-08-14T00:23:12.620Z,0
2022-08-14T00:24:02.996Z,0
2022-08-14T00:25:02.986Z,0
2022-08-14T00:26:06.821Z,0
2022-08-14T00:27:02.980Z,0
2022-08-14T00:28:02.983Z,0
2022-08-14T00:29:03.012Z,0
2022-08-14T00:30:02.981Z,0
2022-08-14T00:31:02.984Z,0
2022-08-14T00:32:03.000Z,0
2022-08-14T00:33:14.561Z,0
2022-08-14T00:34:36.830Z,0
2022-08-14T00:35:02.976Z,0
2022-08-14T00:36:35.754Z,0
2022-08-14T00:37:02.988Z,0
2022-08-14T00:38:02.991Z,0
2022-08-14T00:39:03.003Z,0
2022-08-14T00:40:03.059Z,0
2022-08-14T00:41:02.993Z,0
2022-08-14T00:42:02.982Z,0
2022-08-14T00:43:03.228Z,0
2022-08-14T00:44:03.005Z,0
2022-08-14T00:45:02.986Z,0
2022-08-14T00:46:02.980Z,0
2022-08-14T00:47:02.988Z,0
2022-08-14T00:48:02.999Z,0
2022-08-14T00:49:03.033Z,0
2022-08-14T00:50:02.983Z,0
2022-08-14T00:51:02.983Z,0
2022-08-14T00:52:02.991Z,0
2022-08-14T00:53:02.992Z,0
2022-08-14T00:54:03.007Z,0
2022-08-14T00:55:02.980Z,0
2022-08-14T00:56:06.867Z,0
2022-08-14T00:57:02.983Z,0
2022-08-14T00:58:02.987Z,0
2022-08-14T00:59:02.990Z,0
2022-08-14T01:00:02.982Z,0
2022-08-14T01:01:03.013Z,0
2022-08-14T01:02:02.984Z,0
2022-08-14T01:03:02.996Z,0
2022-08-14T01:04:02.993Z,0
2022-08-14T01:05:02.983Z,0
2022-08-14T01:06:02.991Z,0
2022-08-14T01:07:07.359Z,0
2022-08-14T01:08:03.298Z,0
2022-08-14T01:09:02.991Z,0
2022-08-14T01:10:02.992Z,0
2022-08-14T01:11:02.987Z,0
2022-08-14T01:12:03.523Z,0
2022-08-14T01:13:02.979Z,0
2022-08-14T01:14:18.125Z,0
2022-08-14T01:15:02.990Z,0
2022-08-14T01:16:03.130Z,0
2022-08-14T01:17:03.015Z,0
2022-08-14T01:18:03.022Z,0
2022-08-14T01:19:03.036Z,0
2022-08-14T01:20:02.979Z,0
2022-08-14T01:21:02.983Z,0
2022-08-14T01:22:02.995Z,0
2022-08-14T01:23:02.977Z,0
2022-08-14T01:24:02.989Z,0
2022-08-14T01:25:03.061Z,0
2022-08-14T01:26:02.986Z,0
2022-08-14T01:27:02.999Z,0
2022-08-14T01:28:02.991Z,0
2022-08-14T01:29:03.012Z,0
2022-08-14T01:30:04.568Z,0
2022-08-14T01:31:02.988Z,0
2022-08-14T01:32:02.984Z,0
2022-08-14T01:33:02.998Z,0
2022-08-14T01:35:17.422Z,0
2022-08-14T01:35:17.904Z,0
2022-08-14T01:36:05.355Z,0
2022-08-14T01:37:02.995Z,0
2022-08-14T01:38:02.993Z,0
2022-08-14T01:39:03.001Z,0
2022-08-14T01:40:02.984Z,0
2022-08-14T01:41:02.987Z,0
2022-08-14T01:42:02.977Z,0
2022-08-14T01:43:02.982Z,0
2022-08-14T01:44:03.001Z,0
2022-08-14T01:45:04.247Z,0
2022-08-14T01:46:06.927Z,0
2022-08-14T01:47:05.963Z,0
2022-08-14T01:48:03.873Z,0
2022-08-14T01:49:02.994Z,0
2022-08-14T01:50:02.988Z,0
2022-08-14T01:51:02.979Z,0
2022-08-14T01:52:02.989Z,0
2022-08-14T01:53:03.269Z,0
2022-08-14T01:54:02.996Z,0
2022-08-14T01:55:02.981Z,0
2022-08-14T01:56:02.984Z,0
2022-08-14T01:57:02.979Z,0
2022-08-14T01:58:19.689Z,0
2022-08-14T01:59:03.013Z,0
2022-08-14T02:00:03.181Z,0
2022-08-14T02:01:03.033Z,0
2022-08-14T02:02:03.033Z,0
2022-08-14T02:03:03.742Z,0
2022-08-14T02:04:03.001Z,0
2022-08-14T02:05:02.981Z,0
2022-08-14T02:06:04.040Z,0
2022-08-14T02:07:02.990Z,0
2022-08-14T02:08:09.688Z,0
2022-08-14T02:09:02.996Z,0
2022-08-14T02:10:02.983Z,0
2022-08-14T02:11:02.980Z,0
2022-08-14T02:12:02.979Z,0
2022-08-14T02:13:03.004Z,0
2022-08-14T02:14:07.252Z,0
2022-08-14T02:15:02.980Z,0
2022-08-14T02:16:21.923Z,0
2022-08-14T02:17:02.985Z,0
2022-08-14T02:18:03.009Z,0
2022-08-14T02:19:03.013Z,0
2022-08-14T02:20:03.088Z,0
2022-08-14T02:21:02.999Z,0
2022-08-14T02:22:03.420Z,0
2022-08-14T02:23:02.979Z,0
2022-08-14T02:24:02.992Z,0
2022-08-14T02:25:02.991Z,0
2022-08-14T02:26:24.282Z,0
2022-08-14T02:28:23.429Z,0
2022-08-14T02:28:24.312Z,0
2022-08-14T02:29:03.374Z,0
2022-08-14T02:30:03.115Z,0
2022-08-14T02:31:02.980Z,0
2022-08-14T02:32:02.988Z,0
2022-08-14T02:33:02.990Z,0
2022-08-14T02:34:02.999Z,0
2022-08-14T02:35:03.012Z,0
2022-08-14T02:36:05.275Z,0
2022-08-14T02:37:06.758Z,0
2022-08-14T02:38:04.099Z,0
2022-08-14T02:39:02.997Z,0
2022-08-14T02:40:05.607Z,0
2022-08-14T02:41:02.993Z,0
2022-08-14T02:42:04.199Z,0
2022-08-14T02:43:03.686Z,0
2022-08-14T02:44:02.997Z,0
2022-08-14T02:45:02.983Z,0
2022-08-14T02:46:02.978Z,0
2022-08-14T02:47:02.994Z,0
2022-08-14T02:48:02.997Z,0
2022-08-14T02:49:06.307Z,0
2022-08-14T02:50:02.979Z,0
2022-08-14T02:51:02.983Z,0
2022-08-14T02:52:02.992Z,0
2022-08-14T02:53:03.515Z,0
2022-08-14T02:54:03.700Z,0
2022-08-14T02:55:02.981Z,0
2022-08-14T02:56:10.214Z,0
2022-08-14T02:57:16.132Z,0
2022-08-14T02:58:05.994Z,0
2022-08-14T02:59:05.460Z,0
2022-08-14T03:00:02.991Z,0
2022-08-14T03:01:03.043Z,0
2022-08-14T03:02:03.106Z,0
2022-08-14T03:03:07.806Z,0
2022-08-14T03:04:03.004Z,0
2022-08-14T03:05:02.986Z,0
2022-08-14T03:06:02.989Z,0
2022-08-14T03:07:07.108Z,0
2022-08-14T03:08:02.977Z,0
2022-08-14T03:09:02.988Z,0
2022-08-14T03:10:28.128Z,0
2022-08-14T03:11:02.976Z,0
2022-08-14T03:12:05.025Z,0
2022-08-14T03:13:02.974Z,0
2022-08-14T03:14:02.993Z,0
2022-08-14T03:15:02.989Z,0
2022-08-14T03:16:09.030Z,0
2022-08-14T03:17:02.973Z,0
2022-08-14T03:18:03.012Z,0
2022-08-14T03:19:02.997Z,1
2022-08-14T03:20:02.977Z,1
2022-08-14T03:21:02.982Z,3
2022-08-14T03:22:02.981Z,3
2022-08-14T03:23:04.473Z,5
2022-08-14T03:24:02.999Z,5
2022-08-14T03:25:02.974Z,7
2022-08-14T03:26:02.998Z,7
2022-08-14T03:27:02.982Z,11
2022-08-14T03:28:03.006Z,12
2022-08-14T03:29:02.981Z,14
2022-08-14T03:30:05.354Z,18
2022-08-14T03:31:02.976Z,20
2022-08-14T03:32:03.482Z,23
2022-08-14T03:33:02.995Z,27
2022-08-14T03:34:02.989Z,33
2022-08-14T03:35:02.974Z,36
2022-08-14T03:37:28.327Z,42
2022-08-14T03:37:39.071Z,49
2022-08-14T03:39:11.719Z,62
2022-08-14T03:39:14.627Z,57
2022-08-14T03:40:03.031Z,70
2022-08-14T03:41:02.975Z,79
2022-08-14T03:42:02.977Z,88
2022-08-14T03:43:02.983Z,101
2022-08-14T03:45:18.683Z,110
2022-08-14T03:45:27.034Z,110
2022-08-14T03:46:02.983Z,132
2022-08-14T03:47:03.348Z,145
2022-08-14T03:48:02.995Z,158
2022-08-14T03:49:03.070Z,175
2022-08-14T03:50:02.988Z,188
2022-08-14T03:51:02.987Z,204
2022-08-14T03:52:02.984Z,223
2022-08-14T03:53:03.279Z,241
2022-08-14T03:54:02.994Z,261
2022-08-14T03:55:02.979Z,285
2022-08-14T03:56:02.980Z,309
2022-08-14T03:57:03.524Z,335
2022-08-14T03:58:02.978Z,363
2022-08-14T03:59:02.992Z,394
2022-08-14T04:00:03.011Z,423
2022-08-14T04:01:03.010Z,423
2022-08-14T04:02:04.567Z,453
2022-08-14T04:03:02.989Z,514
2022-08-14T04:04:02.999Z,543
2022-08-14T04:05:12.360Z,582
2022-08-14T04:06:02.980Z,611
2022-08-14T04:07:02.978Z,650
2022-08-14T04:08:22.803Z,693
2022-08-14T04:09:02.998Z,740
2022-08-14T04:10:02.986Z,783
2022-08-14T04:11:07.834Z,825
2022-08-14T04:12:02.977Z,871
2022-08-14T04:13:03.069Z,921
2022-08-14T04:14:02.996Z,962
2022-08-14T04:15:02.976Z,1013
2022-08-14T04:16:04.976Z,1061
2022-08-14T04:17:02.983Z,1113
2022-08-14T04:18:03.006Z,1163
2022-08-14T04:19:03.001Z,1212
2022-08-14T04:20:02.979Z,1260
2022-08-14T04:21:04.025Z,1310
2022-08-14T04:22:04.273Z,1373
2022-08-14T04:23:02.975Z,1410
2022-08-14T04:24:02.991Z,1461
2022-08-14T04:25:05.129Z,1509
2022-08-14T04:26:02.973Z,1561
2022-08-14T04:27:02.985Z,1614
2022-08-14T04:28:03.554Z,1657
2022-08-14T04:29:14.988Z,1697
2022-08-14T04:30:02.974Z,1736
2022-08-14T04:31:02.978Z,1786
2022-08-14T04:33:01.131Z,1817
2022-08-14T04:33:07.358Z,1852
2022-08-14T04:34:02.990Z,1892
2022-08-14T04:35:07.709Z,1924
2022-08-14T04:36:02.986Z,1950
2022-08-14T04:37:02.974Z,1988
2022-08-14T04:38:02.975Z,2025
2022-08-14T04:39:02.997Z,2062
2022-08-14T04:40:03.259Z,2095
2022-08-14T04:41:03.009Z,2128
2022-08-14T04:42:02.975Z,2171
2022-08-14T04:43:02.994Z,2213
2022-08-14T04:44:02.988Z,2228
2022-08-14T04:45:02.987Z,2270
2022-08-14T04:46:02.978Z,2294
2022-08-14T04:47:02.972Z,2320
2022-08-14T04:48:02.993Z,2351
2022-08-14T04:49:03.007Z,2372
2022-08-14T04:50:03.406Z,2401
2022-08-14T04:51:03.377Z,2429
2022-08-14T04:52:03.137Z,2438
2022-08-14T04:53:02.978Z,2455
2022-08-14T04:54:02.987Z,2458
2022-08-14T04:55:02.999Z,2492
2022-08-14T04:56:02.975Z,2493
2022-08-14T04:57:02.987Z,2499
2022-08-14T04:58:02.980Z,2504
2022-08-14T04:59:03.817Z,2512
2022-08-14T05:00:02.983Z,2541
2022-08-14T05:01:02.977Z,2567
2022-08-14T05:02:03.019Z,2567
2022-08-14T05:03:03.007Z,2587
2022-08-14T05:04:02.981Z,2586
2022-08-14T05:05:02.988Z,2593
2022-08-14T05:06:03.193Z,2597
2022-08-14T05:07:02.982Z,2586
2022-08-14T05:08:02.979Z,2597
2022-08-14T05:09:03.010Z,2598
2022-08-14T05:10:13.250Z,2615
2022-08-14T05:11:02.973Z,2584
2022-08-14T05:13:11.715Z,2567
2022-08-14T05:13:13.281Z,2543
2022-08-14T05:14:17.326Z,2541
2022-08-14T05:15:02.981Z,2571
2022-08-14T05:16:02.983Z,2621
2022-08-14T05:17:02.989Z,2639
2022-08-14T05:18:16.875Z,2648
2022-08-14T05:19:24.899Z,2659
2022-08-14T05:21:04.934Z,2665
2022-08-14T05:21:54.493Z,2702
2022-08-14T05:22:15.775Z,2715
2022-08-14T05:23:03.001Z,2729
2022-08-14T05:24:03.004Z,2759
2022-08-14T05:25:02.987Z,2796
2022-08-14T05:26:02.992Z,2803
2022-08-14T05:27:02.984Z,2812
2022-08-14T05:28:02.978Z,2801
2022-08-14T05:29:03.003Z,2799
2022-08-14T05:30:02.981Z,2831
2022-08-14T05:31:02.984Z,2877
2022-08-14T05:32:02.994Z,2890
2022-08-14T05:33:02.988Z,2910
2022-08-14T05:34:02.999Z,2943
2022-08-14T05:35:02.975Z,2978
2022-08-14T05:36:02.980Z,3022
2022-08-14T05:37:03.481Z,3067
2022-08-14T05:38:02.979Z,3096
2022-08-14T05:39:03.007Z,3153
2022-08-14T05:40:03.053Z,3197
2022-08-14T05:41:02.974Z,3262
2022-08-14T05:42:09.870Z,3312
2022-08-14T05:43:02.978Z,3358
2022-08-14T05:44:02.987Z,3391
2022-08-14T05:45:04.203Z,3408
2022-08-14T05:46:02.988Z,3373
2022-08-14T05:47:02.976Z,3312
2022-08-14T05:48:02.995Z,3279
2022-08-14T05:49:02.990Z,3245
2022-08-14T05:50:02.987Z,3244
2022-08-14T05:51:02.977Z,3256
2022-08-14T05:52:02.987Z,3262
2022-08-14T05:53:02.977Z,3286
2022-08-14T05:54:10.185Z,3306
2022-08-14T05:55:03.003Z,3349
2022-08-14T05:56:02.985Z,3376
2022-08-14T05:57:02.990Z,3413
2022-08-14T05:58:02.993Z,3413
2022-08-14T05:59:02.995Z,3489
2022-08-14T06:00:02.984Z,3537
2022-08-14T06:01:02.986Z,3537
2022-08-14T06:05:03.090Z,3769
2022-08-14T06:06:02.984Z,3769
2022-08-14T06:07:02.973Z,3844
2022-08-14T06:08:02.995Z,3916
2022-08-14T06:09:02.990Z,3979
2022-08-14T06:10:04.014Z,4056
2022-08-14T06:11:02.981Z,4121
2022-08-14T06:12:02.976Z,4204
2022-08-14T06:13:03.089Z,4335
2022-08-14T06:14:02.999Z,4403
2022-08-14T06:15:02.982Z,4547
2022-08-14T06:16:02.979Z,4678
2022-08-14T06:17:02.978Z,4926
2022-08-14T06:18:02.982Z,5247
2022-08-14T06:19:03.061Z,5986
2022-08-14T06:20:02.979Z,6757
2022-08-14T06:21:02.977Z,6970
2022-08-14T06:22:02.998Z,6816
2022-08-14T06:23:02.984Z,6926
2022-08-14T06:24:02.985Z,6963
2022-08-14T06:25:02.981Z,7031
2022-08-14T06:26:02.978Z,7031
2022-08-14T06:27:04.690Z,7359
2022-08-14T06:28:04.086Z,7892
2022-08-14T06:29:02.996Z,8006
2022-08-14T06:30:02.984Z,7909
2022-08-14T06:31:02.979Z,7676
2022-08-14T06:32:37.596Z,7405
2022-08-14T06:33:06.739Z,7398
2022-08-14T06:35:03.751Z,7461
2022-08-14T06:35:12.175Z,7595
2022-08-14T06:36:02.981Z,7758
2022-08-14T06:37:02.982Z,7829
2022-08-14T06:38:04.603Z,7654
2022-08-14T06:39:02.993Z,7848
2022-08-14T06:40:03.025Z,7887
2022-08-14T06:41:02.980Z,7940
2022-08-14T06:42:02.984Z,8298
2022-08-14T06:43:03.291Z,8158
2022-08-14T06:44:02.994Z,8158
2022-08-14T06:45:03.022Z,8401
2022-08-14T06:46:03.177Z,8609
2022-08-14T06:47:03.292Z,8891
2022-08-14T06:48:02.984Z,8980
2022-08-14T06:49:02.989Z,9105
2022-08-14T06:50:03.008Z,9105
2022-08-14T06:51:02.976Z,9614
2022-08-14T06:52:02.978Z,9866
2022-08-14T06:53:02.988Z,9837
2022-08-14T06:54:02.990Z,10391
2022-08-14T06:55:02.975Z,10229
2022-08-14T06:56:02.981Z,10279
2022-08-14T06:57:02.978Z,9805
2022-08-14T06:58:03.240Z,9997
2022-08-14T06:59:02.989Z,9791
2022-08-14T07:00:02.986Z,9835
2022-08-14T07:01:03.001Z,10207
2022-08-14T07:02:02.996Z,10231
2022-08-14T07:03:02.984Z,10506
2022-08-14T07:04:02.992Z,11190
2022-08-14T07:05:05.446Z,11311
2022-08-14T07:06:02.981Z,11615
2022-08-14T07:07:04.636Z,11741
2022-08-14T07:08:02.973Z,11741
2022-08-14T07:09:02.985Z,11929
2022-08-14T07:10:03.005Z,12275
2022-08-14T07:11:02.982Z,12273
2022-08-14T07:12:02.974Z,12670
2022-08-14T07:13:04.165Z,13158
2022-08-14T07:14:02.984Z,13271
2022-08-14T07:15:02.991Z,13643
2022-08-14T07:16:05.605Z,13923
2022-08-14T07:17:02.977Z,13976
2022-08-14T07:18:03.092Z,13259
2022-08-14T07:19:03.003Z,12764
2022-08-14T07:20:02.982Z,12109
2022-08-14T07:21:02.980Z,12117
2022-08-14T07:22:05.410Z,12377
2022-08-14T07:23:07.725Z,12738
2022-08-14T07:24:02.988Z,12769
2022-08-14T07:25:02.989Z,12902
2022-08-14T07:26:02.978Z,12874
2022-08-14T07:27:03.008Z,13084
2022-08-14T07:28:02.977Z,13403
2022-08-14T07:29:02.988Z,14225
2022-08-14T07:30:03.009Z,13964
2022-08-14T07:31:04.844Z,13908
2022-08-14T07:32:02.985Z,14113
2022-08-14T07:33:02.982Z,15079
2022-08-14T07:34:04.082Z,13589
2022-08-14T07:35:03.011Z,13516
2022-08-14T07:36:03.374Z,13612
2022-08-14T07:37:02.988Z,13661
2022-08-14T07:38:03.001Z,13882
2022-08-14T07:39:13.160Z,15538
2022-08-14T07:40:03.086Z,13882
2022-08-14T07:41:03.007Z,14793
2022-08-14T07:42:02.997Z,14605
2022-08-14T07:47:03.616Z,14511
2022-08-14T07:48:02.976Z,14376
2022-08-14T07:49:03.017Z,13886
2022-08-14T07:50:02.998Z,13886
2022-08-14T07:51:10.553Z,13886
2022-08-14T07:52:03.330Z,13717
2022-08-14T07:53:02.988Z,13698
2022-08-14T07:54:03.481Z,13927
2022-08-14T07:55:02.989Z,13927
2022-08-14T07:56:22.134Z,13884
2022-08-14T07:57:06.624Z,14024
2022-08-14T07:58:02.983Z,13995
2022-08-14T07:59:02.984Z,14087
2022-08-14T08:00:03.021Z,14087
2022-08-14T08:01:02.981Z,14085
2022-08-14T08:02:02.985Z,14096
2022-08-14T08:03:03.028Z,14340
2022-08-14T08:04:03.380Z,15506
2022-08-14T08:05:02.981Z,14708
2022-08-14T08:06:02.985Z,14658
2022-08-14T08:07:02.995Z,14660
2022-08-14T08:08:02.979Z,14880
2022-08-14T08:09:03.509Z,14900
2022-08-14T08:10:03.100Z,14837
2022-08-14T08:11:03.752Z,14717
2022-08-14T08:12:04.759Z,14773
2022-08-14T08:13:02.990Z,14856
2022-08-14T08:14:02.988Z,14883
2022-08-14T08:15:07.229Z,14902
2022-08-14T08:16:02.982Z,14970
2022-08-14T08:17:02.980Z,14917
2022-08-14T08:18:04.037Z,15031
2022-08-14T08:19:12.863Z,15079
2022-08-14T08:20:03.001Z,15058
2022-08-14T08:21:02.992Z,15195
2022-08-14T08:22:02.980Z,15215
2022-08-14T08:23:06.291Z,15311
2022-08-14T08:24:03.633Z,15276
2022-08-14T08:25:02.997Z,15322
2022-08-14T08:26:02.978Z,15195
2022-08-14T08:27:02.994Z,15545
2022-08-14T08:28:07.991Z,15418
2022-08-14T08:29:03.058Z,15434
2022-08-14T08:30:03.010Z,15328
2022-08-14T08:31:02.978Z,16010
2022-08-14T08:32:06.071Z,16006
2022-08-14T08:33:03.099Z,16131
2022-08-14T08:34:02.992Z,16192
2022-08-14T08:35:03.012Z,15814
2022-08-14T08:36:02.979Z,15814
2022-08-14T08:37:07.253Z,16583
2022-08-14T08:38:14.058Z,16915
2022-08-14T08:39:18.620Z,16323
2022-08-14T08:40:04.239Z,16323
2022-08-14T08:41:02.978Z,17248
2022-08-14T08:42:02.976Z,16857
2022-08-14T08:43:02.981Z,17029
2022-08-14T08:44:02.982Z,17162
2022-08-14T08:45:03.001Z,17200
2022-08-14T08:46:03.004Z,13936
2022-08-14T08:47:03.644Z,6993
2022-08-14T08:48:02.978Z,7378
2022-08-14T08:49:03.001Z,17560
2022-08-14T08:50:02.995Z,17560
2022-08-14T08:51:02.994Z,8399
2022-08-14T08:52:02.987Z,7459
2022-08-14T08:53:02.984Z,7297
2022-08-14T08:54:02.984Z,7575
2022-08-14T08:55:04.671Z,8963
2022-08-14T08:56:03.037Z,8963
2022-08-14T08:57:02.982Z,9691
2022-08-14T08:58:02.973Z,10185
2022-08-14T08:59:02.989Z,9912
2022-08-14T09:00:03.004Z,9872
2022-08-14T09:01:03.071Z,9693
2022-08-14T09:02:05.015Z,9687
2022-08-14T09:03:02.985Z,19727
2022-08-14T09:04:02.997Z,19025
2022-08-14T09:05:02.997Z,19231
2022-08-14T09:06:02.997Z,9732
2022-08-14T09:07:10.923Z,18236
2022-08-14T09:08:02.982Z,18205
2022-08-14T09:09:02.982Z,18732
2022-08-14T09:10:03.675Z,10259
2022-08-14T09:11:02.990Z,18959
2022-08-14T09:12:02.973Z,18883
2022-08-14T09:13:02.979Z,18074
2022-08-14T09:14:02.982Z,18846
2022-08-14T09:15:03.033Z,18996
2022-08-14T09:16:18.561Z,19069
2022-08-14T09:17:02.988Z,18959
2022-08-14T09:18:02.985Z,19043
2022-08-14T09:19:03.029Z,19043
2022-08-14T09:20:04.174Z,18986
2022-08-14T09:21:02.989Z,19012
2022-08-14T09:22:02.987Z,18831
2022-08-14T09:23:02.973Z,19062
2022-08-14T09:24:28.281Z,15202
2022-08-14T09:25:02.993Z,9203
2022-08-14T09:26:05.111Z,17145
2022-08-14T09:27:02.977Z,16048
2022-08-14T09:28:02.979Z,9442
2022-08-14T09:29:02.985Z,15599
2022-08-14T09:30:31.287Z,13639
2022-08-14T09:31:07.288Z,15527
2022-08-14T09:32:02.983Z,14034
2022-08-14T09:33:09.104Z,17681
2022-08-14T09:34:09.274Z,18767
2022-08-14T09:35:02.991Z,18601
2022-08-14T09:36:02.983Z,18601
2022-08-14T09:37:02.979Z,17396
2022-08-14T09:38:02.978Z,17641
2022-08-14T09:39:02.991Z,18502
2022-08-14T09:40:03.867Z,20122
2022-08-14T09:41:02.979Z,20122
2022-08-14T09:42:20.220Z,17348
2022-08-14T09:43:02.973Z,17294
2022-08-14T09:44:06.506Z,12618
2022-08-14T09:45:08.505Z,11947
2022-08-14T09:46:02.986Z,11739
2022-08-14T09:47:02.986Z,12172
2022-08-14T09:48:02.974Z,14183
2022-08-14T09:49:02.995Z,13691
2022-08-14T09:50:02.991Z,13691
2022-08-14T09:52:02.990Z,14601
2022-08-14T09:53:04.002Z,13768
2022-08-14T09:54:18.139Z,16997
2022-08-14T09:55:03.049Z,18396
2022-08-14T09:56:02.994Z,16113
2022-08-14T09:57:02.984Z,16201
2022-08-14T09:58:02.984Z,10690
2022-08-14T09:59:02.978Z,9310
2022-08-14T10:00:02.994Z,8386
2022-08-14T10:01:06.152Z,7684
2022-08-14T10:02:03.021Z,6819
2022-08-14T10:03:05.670Z,6150
2022-08-14T10:04:02.996Z,5286
2022-08-14T10:05:02.992Z,5286
2022-08-14T10:06:02.980Z,4008
2022-08-14T10:07:03.543Z,4008
2022-08-14T10:08:03.040Z,3585
2022-08-14T10:09:02.984Z,3177
2022-08-14T10:10:02.996Z,2882
2022-08-14T10:11:03.335Z,2797
2022-08-14T10:12:04.276Z,3050
2022-08-14T10:13:02.974Z,3575
2022-08-14T10:14:03.004Z,3883
2022-08-14T10:15:02.994Z,3986
2022-08-14T10:16:02.984Z,3870
2022-08-14T10:17:04.781Z,3568
2022-08-14T10:18:02.987Z,3649
2022-08-14T10:19:02.990Z,3411
2022-08-14T10:20:03.006Z,3022
2022-08-14T10:21:02.978Z,3022
2022-08-14T10:23:12.078Z,2114
2022-08-14T10:23:12.191Z,2268
2022-08-14T10:24:02.976Z,2084
2022-08-14T10:25:03.001Z,2313
2022-08-14T10:26:02.973Z,2313
2022-08-14T10:27:02.997Z,2659
2022-08-14T10:28:02.996Z,2641
2022-08-14T10:29:19.453Z,2595
2022-08-14T10:30:02.992Z,2637
2022-08-14T10:31:02.991Z,2637
2022-08-14T10:32:02.982Z,3279
2022-08-14T10:33:02.986Z,3819
2022-08-14T10:34:02.998Z,4141
2022-08-14T10:35:02.993Z,4438
2022-08-14T10:36:03.840Z,4438
2022-08-14T10:37:02.981Z,5120
2022-08-14T10:38:02.981Z,5212
2022-08-14T10:39:02.988Z,4993
2022-08-14T10:40:05.744Z,4742
2022-08-14T10:41:03.098Z,4425
2022-08-14T10:42:02.971Z,4425
2022-08-14T10:43:02.979Z,3520
2022-08-14T10:44:02.974Z,3057
2022-08-14T10:45:02.984Z,2733
2022-08-14T10:46:58.964Z,2733
2022-08-14T10:47:39.186Z,2554
2022-08-14T10:48:09.711Z,2414
2022-08-14T10:49:04.096Z,2512
2022-08-14T10:50:02.990Z,2512
2022-08-14T10:51:02.978Z,2858
2022-08-14T10:52:02.991Z,2858
2022-08-14T10:53:02.974Z,3072
2022-08-14T10:54:25.897Z,3747
2022-08-14T10:55:02.987Z,7450
2022-08-14T10:56:03.619Z,7450
2022-08-14T10:57:22.119Z,20372
2022-08-14T10:58:21.040Z,20372
2022-08-14T11:03:36.117Z,10753
2022-08-14T11:04:25.918Z,10902
2022-08-14T11:05:21.087Z,10087
2022-08-14T11:06:20.979Z,9768
2022-08-14T11:07:21.346Z,9630
2022-08-14T11:08:20.997Z,9523
2022-08-14T11:09:21.003Z,9840
2022-08-14T11:10:21.035Z,10356
2022-08-14T11:11:20.983Z,11204
2022-08-14T11:12:34.567Z,11363
2022-08-14T11:13:20.987Z,16515
2022-08-14T11:14:22.637Z,13033
2022-08-14T11:15:20.996Z,12948
2022-08-14T11:16:20.985Z,12061
2022-08-14T11:17:21.756Z,15003
2022-08-14T11:18:32.370Z,18465
2022-08-14T11:19:21.172Z,19392
2022-08-14T11:20:21.027Z,13293
2022-08-14T11:21:21.343Z,20691
2022-08-14T11:22:55.964Z,20594
2022-08-14T11:23:20.987Z,20547
2022-08-14T11:24:54.182Z,20627
2022-08-14T11:25:21.393Z,20748
2022-08-14T11:26:20.997Z,20874
2022-08-14T11:27:22.129Z,21152
2022-08-14T11:28:20.982Z,21441
2022-08-14T11:29:20.968Z,15175
2022-08-14T11:30:49.802Z,16026
2022-08-14T11:31:22.023Z,16603
2022-08-14T11:32:20.994Z,13536
2022-08-14T11:33:20.983Z,14557
2022-08-14T11:34:31.871Z,16551
2022-08-14T11:35:21.001Z,14010
2022-08-14T11:36:20.975Z,13271
2022-08-14T11:37:31.592Z,12747
2022-08-14T11:38:20.961Z,12941
2022-08-14T11:39:22.912Z,12061
2022-08-14T11:40:28.411Z,12670
2022-08-14T11:41:20.978Z,15029
2022-08-14T11:42:57.730Z,20247
2022-08-14T11:43:29.366Z,18467
2022-08-14T11:44:45.593Z,16365
2022-08-14T11:45:29.933Z,16756
2022-08-14T11:46:30.259Z,19346
2022-08-14T11:47:27.366Z,19405
2022-08-14T11:49:18.953Z,20140
2022-08-14T11:50:33.832Z,20125
2022-08-14T11:51:17.708Z,20547
2022-08-14T11:52:17.726Z,16590
2022-08-14T11:53:17.682Z,15958
2022-08-14T11:54:19.538Z,16721
2022-08-14T11:55:21.153Z,15055
2022-08-14T11:56:17.716Z,13809
2022-08-14T11:57:18.629Z,15259
2022-08-14T11:58:23.781Z,12924
2022-08-14T11:59:17.697Z,12246
2022-08-14T12:00:19.746Z,11663
2022-08-14T12:01:17.699Z,11663
2022-08-14T12:03:10.963Z,11848
2022-08-14T12:03:26.931Z,11492
2022-08-14T12:04:32.479Z,12976
2022-08-14T12:05:17.768Z,16120
2022-08-14T12:06:28.589Z,11919
2022-08-14T12:07:17.696Z,11525
2022-08-14T12:08:18.118Z,11217
2022-08-14T12:09:17.679Z,11273
2022-08-14T12:10:27.145Z,11667
2022-08-14T12:11:17.702Z,12745
2022-08-14T12:12:35.553Z,20806
2022-08-14T12:13:17.832Z,20455
2022-08-14T12:14:30.981Z,19995
2022-08-14T12:15:17.689Z,19996
2022-08-14T12:16:20.881Z,19665
2022-08-14T12:17:17.681Z,19716
2022-08-14T12:18:19.594Z,19703
2022-08-14T12:19:17.682Z,20184
2022-08-14T12:20:32.065Z,20144
2022-08-14T12:21:19.442Z,20164
2022-08-14T12:22:29.511Z,20066
2022-08-14T12:23:17.673Z,19499
2022-08-14T12:24:36.693Z,19961
2022-08-14T12:25:17.681Z,19797
2022-08-14T12:26:39.378Z,19709
2022-08-14T12:27:18.427Z,20042
2022-08-14T12:28:26.777Z,19768
2022-08-14T12:29:17.729Z,19694
2022-08-14T12:30:20.997Z,19469
2022-08-14T12:31:20.693Z,19414
2022-08-14T12:32:17.668Z,19113
2022-08-14T12:33:17.672Z,18983
2022-08-14T12:34:20.419Z,19174
2022-08-14T12:35:17.699Z,18503
2022-08-14T12:36:20.511Z,18594
2022-08-14T12:37:17.695Z,18299
2022-08-14T12:38:19.538Z,17213
2022-08-14T12:39:17.760Z,12581
2022-08-14T12:40:20.712Z,15669
2022-08-14T12:41:20.996Z,13138
2022-08-14T12:42:34.266Z,17403
2022-08-14T12:43:17.673Z,12913
2022-08-14T12:44:20.393Z,14408
2022-08-14T12:45:17.681Z,17829
2022-08-14T12:46:26.641Z,16782
2022-08-14T12:47:17.689Z,13239
2022-08-14T12:48:21.802Z,16841
2022-08-14T12:49:17.905Z,13398
2022-08-14T12:50:17.704Z,11602
2022-08-14T12:51:17.681Z,11870
2022-08-14T12:52:17.692Z,19384
2022-08-14T12:53:17.696Z,22070
2022-08-14T12:54:27.403Z,15781
2022-08-14T12:55:17.676Z,13659
2022-08-14T12:56:32.669Z,18059
2022-08-14T12:57:20.499Z,14236
2022-08-14T12:58:35.155Z,12542
2022-08-14T12:59:17.674Z,15978
2022-08-14T13:00:23.629Z,20575
2022-08-14T13:01:20.657Z,20575
2022-08-14T13:02:17.760Z,14509
2022-08-14T13:03:17.678Z,12124
2022-08-14T13:04:17.680Z,15759
2022-08-14T13:05:17.686Z,10500
2022-08-14T13:06:17.709Z,10397
2022-08-14T13:07:17.678Z,10810
2022-08-14T13:08:33.551Z,11790
2022-08-14T13:09:17.681Z,22514
2022-08-14T13:10:47.641Z,22638
2022-08-14T13:11:17.695Z,20402
2022-08-14T13:12:31.172Z,15976
2022-08-14T13:13:17.968Z,21517
2022-08-14T13:14:17.962Z,19591
2022-08-14T13:15:17.688Z,22901
2022-08-14T13:16:20.754Z,18723
2022-08-14T13:17:17.685Z,22428
2022-08-14T13:18:17.681Z,14185
2022-08-14T13:19:17.683Z,21447
2022-08-14T13:20:23.485Z,12015
2022-08-14T13:21:17.692Z,16870
2022-08-14T13:22:29.212Z,21467
2022-08-14T13:23:17.689Z,22219
2022-08-14T13:24:17.687Z,22013
2022-08-14T13:25:17.671Z,11824
2022-08-14T13:26:17.696Z,11180
2022-08-14T13:27:18.774Z,11214
2022-08-14T13:28:30.101Z,13084
2022-08-14T13:29:17.678Z,11999
2022-08-14T13:30:23.305Z,16553
2022-08-14T13:31:17.689Z,22359
2022-08-14T13:32:17.687Z,22428
2022-08-14T13:33:17.771Z,22063
2022-08-14T13:34:17.673Z,21873
2022-08-14T13:35:17.853Z,21736
2022-08-14T13:36:23.979Z,22002
2022-08-14T13:37:17.675Z,21740
2022-08-14T13:38:17.740Z,21712
2022-08-14T13:39:17.802Z,21567
2022-08-14T13:40:17.753Z,21441
2022-08-14T13:41:17.790Z,20855
2022-08-14T13:42:17.704Z,20472
2022-08-14T13:43:17.732Z,20365